Time;durP1;ratioP1;P1;durP2;ratioP2;P2;SDS_P1;SDS_P2;PMS_P1;PMS_P2;Temp;Humidity;BMP_temperature;BMP_pressure;BME280_temperature;BME280_humidity;BME280_pressure;Samples;Min_cycle;Max_cycle;Signal;HPM_P1;HPM_P2
2023/10/23 00:02:20;;;;;;;8.63;4.63;;;8.50;99.90;;;;;;5074187;28;20406;-75
2023/10/23 00:04:46;;;;;;;7.70;4.72;;;8.50;99.90;;;;;;5080372;28;20394;-71
2023/10/23 00:07:11;;;;;;;11.35;4.68;;;8.50;99.90;;;;;;5087760;28;20044;-71
2023/10/23 00:09:37;;;;;;;12.50;5.13;;;8.50;99.90;;;;;;5078289;28;20536;-71
2023/10/23 00:12:03;;;;;;;6.10;4.55;;;8.50;99.90;;;;;;5072943;28;20410;-70
2023/10/23 00:14:29;;;;;;;9.73;5.18;;;8.50;99.90;;;;;;5087324;28;20059;-70
2023/10/23 00:16:54;;;;;;;8.15;4.70;;;8.50;99.90;;;;;;5075298;28;20041;-70
2023/10/23 00:19:21;;;;;;;7.45;4.60;;;8.50;99.90;;;;;;5082258;28;20444;-74
2023/10/23 00:21:47;;;;;;;8.23;4.80;;;8.50;99.90;;;;;;5087345;28;20122;-70
2023/10/23 00:24:13;;;;;;;7.82;4.80;;;8.50;99.90;;;;;;5073244;28;20098;-70
2023/10/23 00:26:39;;;;;;;8.88;4.65;;;8.50;99.90;;;;;;5087429;28;20079;-72
2023/10/23 00:29:06;;;;;;;7.45;4.82;;;8.40;99.90;;;;;;5085034;28;20040;-70
2023/10/23 00:31:31;;;;;;;9.45;5.53;;;8.40;99.90;;;;;;5075096;28;20044;-70
2023/10/23 00:33:57;;;;;;;8.15;5.20;;;8.40;99.90;;;;;;5092995;28;20040;-70
2023/10/23 00:36:23;;;;;;;10.02;4.88;;;8.40;99.90;;;;;;5090339;28;20040;-74
2023/10/23 00:38:49;;;;;;;11.15;5.72;;;8.40;99.90;;;;;;5082685;28;20414;-70
2023/10/23 00:41:14;;;;;;;8.18;5.57;;;8.30;99.90;;;;;;5073906;28;20043;-69
2023/10/23 00:43:40;;;;;;;10.32;5.32;;;8.30;99.90;;;;;;5086473;28;20081;-70
2023/10/23 00:46:19;;;;;;;8.95;5.50;;;8.30;99.90;;;;;;5088978;28;20079;-70
2023/10/23 00:48:47;;;;;;;8.95;5.28;;;8.30;99.90;;;;;;5086579;28;20047;-70
2023/10/23 00:51:16;;;;;;;11.25;5.70;;;8.30;99.90;;;;;;5093531;28;20047;-70
2023/10/23 00:53:43;;;;;;;8.90;5.78;;;8.30;99.90;;;;;;5093269;28;20448;-70
2023/10/23 00:56:10;;;;;;;9.55;6.07;;;8.30;99.90;;;;;;5075725;28;20056;-70
2023/10/23 00:58:42;;;;;;;10.07;6.00;;;8.20;99.90;;;;;;5093028;28;20044;-70
2023/10/23 01:01:12;;;;;;;9.05;5.85;;;8.20;99.90;;;;;;5091619;28;20093;-70
2023/10/23 01:03:42;;;;;;;8.20;6.03;;;8.20;99.90;;;;;;5092921;28;20124;-70
2023/10/23 01:06:09;;;;;;;8.80;5.75;;;8.20;99.90;;;;;;5093414;28;20047;-70
2023/10/23 01:08:35;;;;;;;7.10;5.65;;;8.20;99.90;;;;;;5092246;28;20048;-69
2023/10/23 01:11:01;;;;;;;11.45;5.82;;;8.20;99.90;;;;;;5092830;28;20470;-70
2023/10/23 01:13:27;;;;;;;9.25;6.00;;;8.20;99.90;;;;;;5091693;28;20063;-69
2023/10/23 01:15:53;;;;;;;9.20;5.85;;;8.20;99.90;;;;;;5092862;28;20055;-69
2023/10/23 01:18:19;;;;;;;9.88;5.60;;;8.10;99.90;;;;;;5092865;28;20044;-70
2023/10/23 01:20:45;;;;;;;9.25;6.00;;;8.10;99.90;;;;;;5092517;28;20040;-70
2023/10/23 01:23:11;;;;;;;10.98;6.13;;;8.10;99.90;;;;;;5093036;28;20052;-69
2023/10/23 01:25:38;;;;;;;8.68;6.50;;;8.10;99.90;;;;;;5092738;28;20119;-70
2023/10/23 01:28:04;;;;;;;9.65;5.75;;;8.10;99.90;;;;;;5088338;28;20044;-69
2023/10/23 01:30:30;;;;;;;9.27;6.50;;;8.00;99.90;;;;;;5075866;28;20036;-71
2023/10/23 01:32:56;;;;;;;9.65;6.32;;;8.00;99.90;;;;;;5090322;28;20051;-70
2023/10/23 01:35:22;;;;;;;11.20;5.90;;;8.00;99.90;;;;;;5085378;28;20036;-69
2023/10/23 01:37:48;;;;;;;9.98;6.25;;;8.00;99.90;;;;;;5092460;28;20505;-71
2023/10/23 01:40:14;;;;;;;11.40;6.75;;;7.90;99.90;;;;;;5073320;28;20040;-69
2023/10/23 01:42:42;;;;;;;9.73;6.85;;;7.90;99.90;;;;;;5087826;28;20051;-70
2023/10/23 01:45:08;;;;;;;10.15;6.55;;;7.90;99.90;;;;;;5091959;28;20409;-71
2023/10/23 01:47:34;;;;;;;12.52;6.60;;;7.90;99.90;;;;;;5087949;28;20405;-75
2023/10/23 01:50:00;;;;;;;9.52;6.75;;;7.80;99.90;;;;;;5086823;28;20039;-71
2023/10/23 01:52:25;;;;;;;12.73;7.45;;;7.90;99.90;;;;;;5090421;28;20481;-70
2023/10/23 01:54:52;;;;;;;12.07;6.90;;;7.90;99.90;;;;;;5091339;28;20039;-70
2023/10/23 01:57:18;;;;;;;9.00;6.85;;;7.80;99.90;;;;;;5092552;28;20079;-70
2023/10/23 01:59:44;;;;;;;11.15;6.78;;;7.80;99.90;;;;;;5092148;28;20071;-71
2023/10/23 02:02:10;;;;;;;12.43;7.47;;;7.80;99.90;;;;;;5092175;28;20036;-70
2023/10/23 02:04:38;;;;;;;12.10;8.00;;;7.80;99.90;;;;;;5091529;28;20393;-75
2023/10/23 02:07:04;;;;;;;10.57;7.03;;;7.90;99.90;;;;;;5092559;28;20055;-71
2023/10/23 02:09:29;;;;;;;10.95;7.90;;;7.80;99.90;;;;;;5091878;28;20044;-70
2023/10/23 02:11:56;;;;;;;9.20;7.38;;;7.80;99.90;;;;;;5091528;28;20044;-71
2023/10/23 02:14:21;;;;;;;12.57;7.65;;;7.80;99.90;;;;;;5079515;28;20054;-68
2023/10/23 02:16:47;;;;;;;13.25;7.32;;;7.80;99.90;;;;;;5091508;28;20048;-70
2023/10/23 02:19:13;;;;;;;10.90;7.80;;;7.80;99.90;;;;;;5091191;28;20170;-71
2023/10/23 02:21:39;;;;;;;9.52;7.93;;;7.80;99.90;;;;;;5091080;28;20513;-74
2023/10/23 02:24:05;;;;;;;12.60;7.78;;;7.80;99.90;;;;;;5091784;28;20112;-70
2023/10/23 02:26:31;;;;;;;11.02;8.30;;;7.80;99.90;;;;;;5091512;28;20505;-69
2023/10/23 02:28:57;;;;;;;12.88;7.60;;;7.80;99.90;;;;;;5091629;28;20051;-71
2023/10/23 02:31:23;;;;;;;10.43;7.85;;;7.80;99.90;;;;;;5091809;28;20047;-70
2023/10/23 02:33:49;;;;;;;12.32;8.23;;;7.80;99.90;;;;;;5091246;28;20036;-71
2023/10/23 02:36:16;;;;;;;12.32;8.45;;;7.80;99.90;;;;;;5091956;28;20039;-70
2023/10/23 02:38:42;;;;;;;13.40;7.78;;;7.70;99.90;;;;;;5092008;28;20533;-75
2023/10/23 02:41:08;;;;;;;11.27;7.78;;;7.70;99.90;;;;;;5090882;28;20058;-70
2023/10/23 02:43:34;;;;;;;10.68;7.85;;;7.70;99.90;;;;;;5092304;28;20374;-70
2023/10/23 02:46:04;;;;;;;16.90;8.77;;;7.70;99.90;;;;;;5090104;28;20067;-70
2023/10/23 02:48:30;;;;;;;12.55;8.60;;;7.70;99.90;;;;;;5092102;28;20054;-70
2023/10/23 02:50:56;;;;;;;12.20;8.40;;;7.70;99.90;;;;;;5086698;28;20044;-70
2023/10/23 02:53:22;;;;;;;12.65;7.70;;;7.70;99.90;;;;;;5091513;28;20048;-70
2023/10/23 02:55:48;;;;;;;13.68;8.63;;;7.70;99.90;;;;;;5091358;28;20488;-71
2023/10/23 02:58:15;;;;;;;11.32;8.30;;;7.60;99.90;;;;;;5091822;28;20499;-70
2023/10/23 03:00:42;;;;;;;12.55;8.48;;;7.60;99.90;;;;;;5091603;28;20119;-70
2023/10/23 03:03:09;;;;;;;10.35;8.13;;;7.60;99.90;;;;;;5091493;28;20126;-70
2023/10/23 03:05:34;;;;;;;13.45;8.02;;;7.60;99.90;;;;;;5091720;28;20047;-70
2023/10/23 03:08:00;;;;;;;10.68;7.88;;;7.60;99.90;;;;;;5091440;28;20097;-70
2023/10/23 03:10:26;;;;;;;14.20;9.15;;;7.60;99.90;;;;;;5091434;28;20060;-70
2023/10/23 03:12:52;;;;;;;13.43;8.50;;;7.60;99.90;;;;;;5091006;28;20148;-68
2023/10/23 03:15:18;;;;;;;13.40;8.57;;;7.60;99.90;;;;;;5091438;28;20052;-69
2023/10/23 03:17:44;;;;;;;19.83;8.70;;;7.60;99.90;;;;;;5091730;28;20135;-69
2023/10/23 03:20:10;;;;;;;12.38;8.68;;;7.50;99.90;;;;;;5091088;28;20055;-70
2023/10/23 03:22:36;;;;;;;10.52;8.60;;;7.50;99.90;;;;;;5091195;28;20036;-69
2023/10/23 03:25:03;;;;;;;12.48;8.70;;;7.50;99.90;;;;;;5091148;28;20075;-73
2023/10/23 03:27:29;;;;;;;15.27;9.60;;;7.50;99.90;;;;;;5091515;28;20098;-68
2023/10/23 03:29:55;;;;;;;12.77;9.00;;;7.50;99.90;;;;;;5091193;28;20054;-69
2023/10/23 03:32:20;;;;;;;18.48;9.13;;;7.50;99.90;;;;;;5091430;28;20119;-69
2023/10/23 03:34:46;;;;;;;14.77;8.77;;;7.50;99.90;;;;;;5086827;28;20040;-70
2023/10/23 03:37:12;;;;;;;11.30;9.02;;;7.50;99.90;;;;;;5080829;28;20048;-69
2023/10/23 03:39:37;;;;;;;12.77;9.07;;;7.40;99.90;;;;;;5075609;28;20052;-69
2023/10/23 03:42:03;;;;;;;14.20;9.00;;;7.40;99.90;;;;;;5093512;28;20043;-69
2023/10/23 03:44:29;;;;;;;13.40;8.93;;;7.40;99.90;;;;;;5093742;28;20139;-69
2023/10/23 03:46:54;;;;;;;11.27;8.93;;;7.40;99.90;;;;;;5093719;28;20050;-70
2023/10/23 03:49:20;;;;;;;14.48;9.10;;;7.40;99.90;;;;;;5094704;28;20040;-70
2023/10/23 03:51:46;;;;;;;10.73;9.07;;;7.40;99.90;;;;;;5094976;28;20040;-69
2023/10/23 03:54:12;;;;;;;12.98;9.70;;;7.30;99.90;;;;;;5076763;28;20908;-69
2023/10/23 03:56:37;;;;;;;13.80;9.18;;;7.30;99.90;;;;;;5090566;28;20139;-69
2023/10/23 03:59:04;;;;;;;9.98;8.90;;;7.30;99.90;;;;;;5084846;28;20182;-69
2023/10/23 04:01:30;;;;;;;14.55;9.20;;;7.30;99.90;;;;;;5094668;28;20371;-69
2023/10/23 04:03:56;;;;;;;12.32;9.18;;;7.20;99.90;;;;;;5094721;28;20066;-69
2023/10/23 04:06:22;;;;;;;13.57;9.30;;;7.20;99.90;;;;;;5094675;28;20405;-69
2023/10/23 04:08:52;;;;;;;11.60;8.75;;;7.20;99.90;;;;;;5093670;28;20514;-69
2023/10/23 04:11:18;;;;;;;12.57;9.55;;;7.20;99.90;;;;;;5092896;28;20063;-69
2023/10/23 04:13:44;;;;;;;13.05;9.40;;;7.20;99.90;;;;;;5093762;28;20064;-69
2023/10/23 04:16:09;;;;;;;13.80;9.27;;;7.20;99.90;;;;;;5091938;28;20055;-69
2023/10/23 04:18:35;;;;;;;12.93;10.00;;;7.10;99.90;;;;;;5093652;28;20097;-69
2023/10/23 04:21:09;;;;;;;13.30;9.65;;;7.10;99.90;;;;;;5092561;28;20043;-69
2023/10/23 04:23:36;;;;;;;13.00;10.13;;;7.10;99.90;;;;;;5093998;28;20051;-69
2023/10/23 04:26:03;;;;;;;13.88;9.30;;;7.10;99.90;;;;;;5093279;28;20051;-69
2023/10/23 04:28:29;;;;;;;12.13;9.32;;;7.10;99.90;;;;;;5092684;28;20040;-69
2023/10/23 04:30:58;;;;;;;11.85;9.32;;;7.10;99.90;;;;;;5094193;28;20486;-69
2023/10/23 04:33:24;;;;;;;14.30;10.45;;;7.10;99.90;;;;;;5094258;28;20051;-69
2023/10/23 04:36:00;;;;;;;13.18;9.65;;;7.10;99.90;;;;;;5093687;28;20067;-69
2023/10/23 04:38:26;;;;;;;12.55;9.25;;;7.10;99.90;;;;;;5098931;28;20493;-69
2023/10/23 04:40:55;;;;;;;14.40;10.07;;;7.00;99.90;;;;;;5090070;28;20051;-69
2023/10/23 04:43:21;;;;;;;13.85;10.77;;;7.00;99.90;;;;;;5093493;28;20048;-69
2023/10/23 04:45:48;;;;;;;14.75;10.48;;;7.00;99.90;;;;;;5094372;28;20051;-68
2023/10/23 04:48:14;;;;;;;15.88;10.38;;;7.00;99.90;;;;;;5092843;28;20051;-69
2023/10/23 04:50:40;;;;;;;17.77;10.88;;;7.00;99.90;;;;;;5093915;28;20048;-68
2023/10/23 04:53:06;;;;;;;15.68;10.77;;;7.00;99.90;;;;;;5093364;28;20500;-69
2023/10/23 04:55:33;;;;;;;14.23;10.30;;;7.00;99.90;;;;;;5094075;28;20044;-69
2023/10/23 04:57:59;;;;;;;16.73;10.23;;;7.00;99.90;;;;;;5092569;28;20044;-70
2023/10/23 05:00:25;;;;;;;15.50;10.30;;;7.10;99.90;;;;;;5093247;28;20036;-70
2023/10/23 05:02:51;;;;;;;13.82;10.55;;;7.00;99.90;;;;;;5093631;28;20044;-70
2023/10/23 05:05:16;;;;;;;15.32;10.85;;;7.00;99.90;;;;;;5084156;28;20127;-69
2023/10/23 05:07:42;;;;;;;13.15;10.80;;;7.00;99.90;;;;;;5092344;28;20044;-69
2023/10/23 05:10:09;;;;;;;15.15;10.30;;;7.00;99.90;;;;;;5087909;28;20048;-69
2023/10/23 05:12:35;;;;;;;12.07;10.23;;;6.90;99.90;;;;;;5077136;28;20049;-68
2023/10/23 05:15:02;;;;;;;16.17;10.85;;;6.90;99.90;;;;;;5088626;28;20070;-69
2023/10/23 05:17:28;;;;;;;14.05;9.80;;;6.90;99.90;;;;;;5091316;28;20054;-68
2023/10/23 05:19:53;;;;;;;15.00;10.70;;;6.90;99.90;;;;;;5091843;28;20126;-69
2023/10/23 05:22:19;;;;;;;13.82;10.30;;;6.90;99.90;;;;;;5090934;28;20040;-69
2023/10/23 05:24:46;;;;;;;14.95;10.68;;;6.90;99.90;;;;;;5093033;28;20054;-69
2023/10/23 05:27:13;;;;;;;14.52;11.18;;;6.90;99.90;;;;;;5091597;28;20055;-68
2023/10/23 05:29:38;;;;;;;18.15;11.00;;;6.90;99.90;;;;;;5092564;28;20067;-68
2023/10/23 05:32:04;;;;;;;12.93;10.48;;;6.90;99.90;;;;;;5089023;28;20056;-68
2023/10/23 05:34:30;;;;;;;17.75;11.75;;;6.80;99.90;;;;;;5092252;28;20055;-68
2023/10/23 05:36:56;;;;;;;19.27;11.48;;;6.80;99.90;;;;;;5092687;28;20048;-69
2023/10/23 05:39:22;;;;;;;17.88;11.57;;;6.80;99.90;;;;;;5085185;28;20048;-70
2023/10/23 05:41:47;;;;;;;15.88;10.80;;;6.80;99.90;;;;;;5085682;28;20052;-68
2023/10/23 05:44:13;;;;;;;17.10;11.55;;;6.80;99.90;;;;;;5091950;28;20079;-71
2023/10/23 05:46:38;;;;;;;15.45;11.30;;;6.80;99.90;;;;;;5092856;28;20429;-69
2023/10/23 05:49:04;;;;;;;15.88;12.02;;;6.80;99.90;;;;;;5092239;28;20040;-71
2023/10/23 05:51:31;;;;;;;15.40;11.38;;;6.80;99.90;;;;;;5091409;28;20046;-69
2023/10/23 05:53:57;;;;;;;12.85;10.43;;;6.80;99.90;;;;;;5091587;28;20129;-69
2023/10/23 05:56:23;;;;;;;17.52;11.88;;;6.80;99.90;;;;;;5089749;28;20040;-71
2023/10/23 05:58:50;;;;;;;15.23;11.82;;;6.80;99.90;;;;;;5091869;28;20386;-70
2023/10/23 06:01:17;;;;;;;15.20;11.75;;;6.80;99.90;;;;;;5091642;28;20040;-69
2023/10/23 06:03:43;;;;;;;18.80;12.55;;;6.80;99.90;;;;;;5091874;28;20444;-69
2023/10/23 06:06:09;;;;;;;17.02;11.93;;;6.80;99.90;;;;;;5090989;28;20076;-69
2023/10/23 06:08:35;;;;;;;14.35;11.25;;;6.80;99.90;;;;;;5090422;28;20040;-69
2023/10/23 06:11:01;;;;;;;16.63;11.68;;;6.80;99.90;;;;;;5082235;28;20394;-69
2023/10/23 06:13:27;;;;;;;15.63;10.85;;;6.80;99.90;;;;;;5090901;28;20044;-69
2023/10/23 06:15:53;;;;;;;15.90;11.48;;;6.80;99.90;;;;;;5091598;28;20044;-70
2023/10/23 06:18:19;;;;;;;14.43;10.35;;;6.70;99.90;;;;;;5091795;28;20044;-69
2023/10/23 06:20:45;;;;;;;17.08;11.60;;;6.70;99.90;;;;;;5091607;28;20040;-69
2023/10/23 06:23:11;;;;;;;16.75;11.85;;;6.70;99.90;;;;;;5087254;28;20553;-70
2023/10/23 06:25:37;;;;;;;15.95;11.38;;;6.70;99.90;;;;;;5073573;28;20135;-69
2023/10/23 06:28:03;;;;;;;13.45;11.45;;;6.60;99.90;;;;;;5084381;28;20469;-69
2023/10/23 06:30:29;;;;;;;15.25;11.10;;;6.60;99.90;;;;;;5090348;28;20059;-69
2023/10/23 06:32:55;;;;;;;13.88;11.20;;;6.70;99.90;;;;;;5091185;28;20044;-71
2023/10/23 06:35:21;;;;;;;13.73;11.43;;;6.70;99.90;;;;;;5050473;28;20054;-68
2023/10/23 06:37:48;;;;;;;13.93;10.88;;;6.70;99.90;;;;;;5092005;28;20072;-68
2023/10/23 06:40:14;;;;;;;15.95;10.95;;;6.70;99.90;;;;;;5090920;28;20093;-69
2023/10/23 06:42:39;;;;;;;14.63;11.70;;;6.60;99.90;;;;;;5088047;28;20036;-68
2023/10/23 06:45:06;;;;;;;13.30;11.65;;;6.70;99.90;;;;;;5090053;28;20046;-68
2023/10/23 06:47:32;;;;;;;12.77;11.05;;;6.70;99.90;;;;;;5091209;28;20048;-69
2023/10/23 06:49:59;;;;;;;15.35;11.30;;;6.60;99.90;;;;;;5090370;28;20051;-69
2023/10/23 06:52:25;;;;;;;14.57;11.93;;;6.70;99.90;;;;;;5089730;28;20046;-69
2023/10/23 06:54:51;;;;;;;16.30;11.73;;;6.70;99.90;;;;;;5091758;28;20120;-68
2023/10/23 06:57:17;;;;;;;13.32;11.05;;;6.80;99.90;;;;;;5091182;28;20051;-69
2023/10/23 06:59:42;;;;;;;18.10;12.52;;;6.90;99.90;;;;;;5089803;28;20047;-69
2023/10/23 07:02:09;;;;;;;15.07;11.82;;;7.10;99.90;;;;;;5090325;28;20036;-69
2023/10/23 07:04:34;;;;;;;13.98;10.95;;;7.30;99.90;;;;;;5090460;28;20123;-69
2023/10/23 07:07:00;;;;;;;17.95;11.68;;;7.70;99.90;;;;;;5091276;28;20118;-70
2023/10/23 07:09:26;;;;;;;12.40;10.40;;;8.20;99.90;;;;;;5090718;28;20040;-71
2023/10/23 07:11:52;;;;;;;13.70;9.65;;;8.90;99.90;;;;;;5092769;28;20448;-69
2023/10/23 07:14:18;;;;;;;15.40;9.23;;;9.60;99.90;;;;;;5095269;28;20136;-69
2023/10/23 07:16:45;;;;;;;11.57;9.13;;;10.20;99.90;;;;;;5093837;28;20043;-70
2023/10/23 07:19:11;;;;;;;9.93;8.18;;;10.80;99.90;;;;;;5095098;28;20052;-70
2023/10/23 07:21:37;;;;;;;12.75;8.00;;;11.10;99.90;;;;;;5094293;28;20102;-69
2023/10/23 07:24:03;;;;;;;11.93;7.97;;;11.50;99.90;;;;;;5084904;28;20058;-69
2023/10/23 07:26:29;;;;;;;9.82;7.50;;;11.80;99.90;;;;;;5078626;28;20059;-70
2023/10/23 07:28:55;;;;;;;17.17;8.05;;;12.20;99.90;;;;;;5080668;28;20036;-70
2023/10/23 07:31:21;;;;;;;10.25;7.70;;;12.60;99.90;;;;;;5076823;28;20101;-70
2023/10/23 07:33:47;;;;;;;13.25;6.97;;;13.10;99.90;;;;;;5094797;28;20052;-69
2023/10/23 07:36:14;;;;;;;9.77;7.40;;;13.50;99.90;;;;;;5094321;28;20048;-69
2023/10/23 07:38:44;;;;;;;13.30;6.68;;;13.90;99.90;;;;;;5094824;28;20090;-69
2023/10/23 07:41:11;;;;;;;9.25;6.40;;;14.50;99.90;;;;;;5094310;28;20184;-70
2023/10/23 07:43:38;;;;;;;8.63;6.82;;;15.00;99.90;;;;;;5084844;28;20468;-70
2023/10/23 07:46:05;;;;;;;9.75;6.10;;;15.50;99.90;;;;;;5086517;28;20048;-70
2023/10/23 07:48:31;;;;;;;8.40;5.95;;;15.70;99.90;;;;;;5093491;28;20056;-70
2023/10/23 07:50:58;;;;;;;10.57;6.40;;;15.40;99.90;;;;;;5094690;28;20043;-70
2023/10/23 07:53:24;;;;;;;9.55;6.28;;;14.80;99.90;;;;;;5093990;28;20504;-70
2023/10/23 07:55:50;;;;;;;9.45;6.32;;;14.20;99.90;;;;;;5094845;28;20140;-70
2023/10/23 07:58:17;;;;;;;11.35;6.65;;;13.60;99.90;;;;;;5094642;28;20076;-69
2023/10/23 08:00:43;;;;;;;11.10;7.10;;;13.10;99.90;;;;;;5092696;28;20048;-69
2023/10/23 08:03:09;;;;;;;8.40;6.57;;;12.90;99.90;;;;;;5093967;28;20043;-70
2023/10/23 08:05:36;;;;;;;8.73;7.03;;;13.30;99.90;;;;;;5094335;28;20090;-70
2023/10/23 08:08:02;;;;;;;9.88;6.63;;;13.90;99.90;;;;;;5094572;28;20043;-73
2023/10/23 08:10:27;;;;;;;11.18;6.78;;;14.60;99.90;;;;;;5093606;28;20132;-70
2023/10/23 08:12:53;;;;;;;8.05;6.80;;;15.20;99.90;;;;;;5093844;28;20109;-70
2023/10/23 08:15:19;;;;;;;11.75;6.50;;;15.90;99.90;;;;;;5092788;28;20036;-69
2023/10/23 08:17:44;;;;;;;8.68;6.40;;;16.60;99.90;;;;;;5094127;28;20050;-69
2023/10/23 08:20:10;;;;;;;9.68;6.43;;;17.00;99.90;;;;;;5094358;28;20129;-68
2023/10/23 08:22:36;;;;;;;10.93;5.90;;;17.50;99.90;;;;;;5090015;28;20067;-70
2023/10/23 08:25:02;;;;;;;7.38;6.03;;;18.00;99.90;;;;;;5093449;28;20047;-72
2023/10/23 08:27:28;;;;;;;9.43;5.78;;;18.40;99.90;;;;;;5094281;28;20386;-71
2023/10/23 08:29:53;;;;;;;9.13;5.82;;;18.80;99.90;;;;;;5092792;28;20079;-69
2023/10/23 08:32:19;;;;;;;7.45;5.57;;;19.10;99.90;;;;;;5094133;28;20470;-71
2023/10/23 08:34:45;;;;;;;7.43;5.65;;;19.50;99.90;;;;;;5092969;28;20043;-71
2023/10/23 08:37:11;;;;;;;9.73;5.57;;;19.70;99.90;;;;;;5094383;28;20413;-71
2023/10/23 08:39:37;;;;;;;9.73;5.90;;;19.90;99.90;;;;;;5093781;28;20036;-69
2023/10/23 08:42:03;;;;;;;8.43;5.65;;;19.20;99.90;;;;;;5094215;28;20510;-69
2023/10/23 08:44:29;;;;;;;10.77;6.03;;;18.30;99.90;;;;;;5089198;28;20048;-70
2023/10/23 08:46:55;;;;;;;7.53;5.65;;;17.50;99.90;;;;;;5090771;28;20044;-71
2023/10/23 08:49:21;;;;;;;7.53;6.10;;;16.80;99.90;;;;;;5086381;28;20051;-69
2023/10/23 08:51:53;;;;;;;10.80;6.15;;;16.20;99.90;;;;;;5085449;28;20039;-73
2023/10/23 08:54:20;;;;;;;9.73;6.15;;;15.70;99.90;;;;;;5092098;28;20047;-69
2023/10/23 08:57:02;;;;;;;13.32;6.35;;;15.30;99.90;;;;;;5090482;28;20074;-69
2023/10/23 08:59:28;;;;;;;8.35;6.28;;;15.00;99.90;;;;;;5093537;28;20040;-69
2023/10/23 09:01:55;;;;;;;8.00;6.20;;;14.70;99.90;;;;;;5092247;28;20062;-69
2023/10/23 09:04:21;;;;;;;9.45;6.05;;;14.60;99.90;;;;;;5088148;28;20051;-70
2023/10/23 09:06:47;;;;;;;10.68;6.40;;;14.40;99.90;;;;;;5091044;28;20040;-67
2023/10/23 09:09:13;;;;;;;8.90;6.35;;;14.20;99.90;;;;;;5092881;28;20048;-68
2023/10/23 09:11:44;;;;;;;8.40;6.78;;;14.10;99.90;;;;;;5090045;28;20055;-69
2023/10/23 09:14:21;;;;;;;10.02;6.22;;;14.00;99.90;;;;;;5092838;28;20084;-68
2023/10/23 09:16:47;;;;;;;12.55;6.40;;;13.90;99.90;;;;;;5088446;28;20374;-68
2023/10/23 09:19:27;;;;;;;9.38;7.03;;;13.70;99.90;;;;;;5092756;28;20056;-68
2023/10/23 09:21:54;;;;;;;11.27;7.72;;;13.50;99.90;;;;;;5089775;28;20524;-68
2023/10/23 09:24:21;;;;;;;9.95;7.72;;;13.40;99.90;;;;;;5092877;28;20421;-68
2023/10/23 09:26:48;;;;;;;12.45;7.57;;;13.40;99.90;;;;;;5091853;28;20052;-68
2023/10/23 09:29:14;;;;;;;7.93;6.10;;;13.30;99.90;;;;;;5086170;28;20040;-70
2023/10/23 09:31:43;;;;;;;11.50;6.95;;;13.30;99.90;;;;;;5090354;28;20359;-75
2023/10/23 09:34:10;;;;;;;16.83;7.28;;;13.30;99.90;;;;;;5073556;28;20039;-68
2023/10/23 09:36:35;;;;;;;8.38;6.38;;;13.20;99.90;;;;;;5091184;28;20443;-68
2023/10/23 09:39:02;;;;;;;9.88;6.55;;;13.10;99.90;;;;;;5091001;28;20040;-68
2023/10/23 09:41:29;;;;;;;10.57;6.07;;;13.10;99.90;;;;;;5084380;28;20047;-68
2023/10/23 09:43:58;;;;;;;8.38;5.80;;;13.20;99.90;;;;;;5089680;28;20054;-68
2023/10/23 09:46:27;;;;;;;9.20;5.60;;;13.20;99.90;;;;;;5092251;28;20550;-68
2023/10/23 09:48:59;;;;;;;7.80;5.82;;;13.20;99.90;;;;;;5088452;28;20071;-69
2023/10/23 09:51:29;;;;;;;8.45;5.57;;;13.20;99.90;;;;;;5091582;28;20043;-69
2023/10/23 09:53:59;;;;;;;7.75;5.40;;;13.30;99.90;;;;;;5091972;28;20055;-69
2023/10/23 09:56:31;;;;;;;10.15;5.70;;;13.30;99.90;;;;;;5090020;28;20048;-69
2023/10/23 09:59:06;;;;;;;10.32;5.38;;;13.40;99.90;;;;;;5091395;28;20065;-70
2023/10/23 10:01:42;;;;;;;9.70;6.00;;;13.40;99.90;;;;;;5092017;28;20436;-69
2023/10/23 10:04:18;;;;;;;8.57;5.47;;;13.50;99.90;;;;;;5092131;28;20518;-68
2023/10/23 10:06:54;;;;;;;11.32;5.07;;;13.50;99.90;;;;;;5091972;28;20342;-72
2023/10/23 10:09:22;;;;;;;8.40;4.78;;;13.60;99.90;;;;;;5091933;28;20155;-69
2023/10/23 10:11:49;;;;;;;8.60;5.53;;;13.60;99.90;;;;;;5091234;28;20410;-69
2023/10/23 10:14:17;;;;;;;10.32;5.47;;;13.70;99.90;;;;;;5092183;28;20119;-69
2023/10/23 10:16:44;;;;;;;8.68;5.80;;;13.70;99.90;;;;;;5084467;28;20468;-69
2023/10/23 10:19:12;;;;;;;6.70;4.90;;;13.70;99.90;;;;;;5090094;28;20058;-69
2023/10/23 10:22:32;;;;;;;10.10;4.80;;;13.70;99.90;;;;;;5085786;28;20436;-68
2023/10/23 10:24:59;;;;;;;7.18;4.70;;;13.70;99.90;;;;;;5065613;28;20489;-69
2023/10/23 10:27:25;;;;;;;10.20;4.85;;;13.70;99.90;;;;;;5090676;28;20047;-70
2023/10/23 10:29:51;;;;;;;9.43;4.57;;;13.70;99.90;;;;;;5089903;28;20044;-70
2023/10/23 10:32:17;;;;;;;9.38;4.72;;;13.70;99.90;;;;;;5091699;28;20115;-70
2023/10/23 10:34:46;;;;;;;6.35;3.85;;;13.70;99.90;;;;;;5088701;28;20119;-70
2023/10/23 10:37:12;;;;;;;7.72;4.20;;;13.80;99.90;;;;;;5090253;28;20135;-71
2023/10/23 10:39:50;;;;;;;6.53;3.88;;;13.80;99.90;;;;;;5090084;28;20472;-70
2023/10/23 10:42:24;;;;;;;8.15;4.38;;;13.80;99.90;;;;;;5074142;28;20452;-70
2023/10/23 10:44:56;;;;;;;7.88;4.03;;;13.90;99.90;;;;;;5091316;28;20047;-71
2023/10/23 10:47:35;;;;;;;6.70;3.95;;;13.90;99.90;;;;;;5090956;28;20133;-70
2023/10/23 10:50:01;;;;;;;5.55;3.20;;;14.00;99.90;;;;;;5084205;28;20044;-70
2023/10/23 10:52:27;;;;;;;5.95;3.13;;;13.90;99.90;;;;;;5089740;28;20531;-70
2023/10/23 10:54:59;;;;;;;6.45;3.40;;;13.90;99.90;;;;;;5088997;28;20043;-70
2023/10/23 10:57:26;;;;;;;8.85;3.58;;;14.00;99.90;;;;;;5089765;28;20040;-71
2023/10/23 10:59:56;;;;;;;7.13;3.75;;;14.00;99.90;;;;;;5091355;28;20052;-73
2023/10/23 11:02:25;;;;;;;8.35;5.03;;;14.10;99.90;;;;;;5091584;28;20033;-70
2023/10/23 11:04:51;;;;;;;7.68;4.15;;;14.10;99.90;;;;;;5090221;28;20048;-74
2023/10/23 11:07:24;;;;;;;5.45;3.67;;;14.10;99.90;;;;;;5089930;28;20040;-70
2023/10/23 11:09:50;;;;;;;7.00;4.20;;;14.10;99.90;;;;;;5088539;28;20048;-70
2023/10/23 11:12:20;;;;;;;5.90;3.75;;;14.10;99.90;;;;;;5083485;28;20060;-70
2023/10/23 11:14:49;;;;;;;7.15;3.47;;;14.10;99.90;;;;;;5084181;28;20490;-75
2023/10/23 11:17:15;;;;;;;7.00;3.55;;;14.10;99.90;;;;;;5087966;28;20174;-71
2023/10/23 11:19:44;;;;;;;4.65;2.65;;;14.10;99.90;;;;;;5082821;28;20048;-71
2023/10/23 11:22:15;;;;;;;4.80;2.70;;;14.10;99.90;;;;;;5087284;28;20044;-70
2023/10/23 11:24:42;;;;;;;3.53;2.40;;;14.10;99.90;;;;;;5084735;28;20040;-70
2023/10/23 11:27:08;;;;;;;5.20;2.42;;;14.10;99.90;;;;;;5088349;28;20512;-69
2023/10/23 11:29:45;;;;;;;4.10;2.45;;;14.20;99.90;;;;;;5088799;28;20413;-70
2023/10/23 11:32:12;;;;;;;3.95;2.25;;;14.20;99.90;;;;;;5082716;28;20037;-70
2023/10/23 11:34:38;;;;;;;4.20;2.78;;;14.30;99.90;;;;;;5091279;28;20079;-70
2023/10/23 11:37:05;;;;;;;6.13;2.65;;;14.40;99.90;;;;;;5090474;28;20145;-70
2023/10/23 11:39:31;;;;;;;6.68;2.70;;;14.50;99.90;;;;;;5090373;28;20467;-70
2023/10/23 11:41:58;;;;;;;5.20;2.22;;;14.50;99.90;;;;;;5089974;28;20042;-71
2023/10/23 11:44:28;;;;;;;8.23;2.10;;;14.50;99.90;;;;;;5089428;28;20040;-70
2023/10/23 11:46:55;;;;;;;4.50;2.30;;;14.50;99.90;;;;;;5091478;28;20040;-73
2023/10/23 11:49:24;;;;;;;5.05;2.20;;;14.50;99.90;;;;;;5089983;28;20036;-71
2023/10/23 11:51:51;;;;;;;4.28;2.20;;;14.50;99.90;;;;;;5090739;28;20139;-71
2023/10/23 11:54:17;;;;;;;4.63;2.13;;;14.60;99.90;;;;;;5089964;28;20036;-71
2023/10/23 11:56:44;;;;;;;2.72;2.00;;;14.60;99.90;;;;;;5088566;28;20048;-72
2023/10/23 11:59:20;;;;;;;3.45;1.80;;;14.60;99.90;;;;;;5085341;28;20087;-71
2023/10/23 12:01:47;;;;;;;5.72;2.00;;;14.60;99.90;;;;;;5091559;28;20040;-71
2023/10/23 12:04:13;;;;;;;4.53;2.08;;;14.60;99.90;;;;;;5089918;28;20055;-71
2023/10/23 12:06:40;;;;;;;3.00;1.80;;;14.50;99.90;;;;;;5084663;28;20043;-71
2023/10/23 12:09:07;;;;;;;4.07;2.25;;;14.60;99.90;;;;;;5089314;28;20051;-72
2023/10/23 12:11:34;;;;;;;4.32;2.20;;;14.50;99.90;;;;;;5101216;28;20546;-69
2023/10/23 12:14:01;;;;;;;4.38;2.20;;;14.60;99.90;;;;;;5094183;28;20048;-75
2023/10/23 12:16:28;;;;;;;4.45;2.53;;;14.60;99.90;;;;;;5092823;28;20059;-69
2023/10/23 12:18:54;;;;;;;3.75;2.08;;;14.60;99.90;;;;;;5094171;28;20165;-69
2023/10/23 12:21:20;;;;;;;3.83;1.98;;;14.60;99.90;;;;;;5093682;28;20727;-69
2023/10/23 12:23:46;;;;;;;5.57;2.63;;;14.60;99.90;;;;;;5093204;28;20047;-69
2023/10/23 12:26:12;;;;;;;3.78;2.28;;;14.60;99.90;;;;;;5086700;28;20047;-70
2023/10/23 12:28:38;;;;;;;3.90;2.28;;;14.60;99.90;;;;;;5092889;28;20401;-71
2023/10/23 12:31:04;;;;;;;5.05;2.60;;;14.60;99.90;;;;;;5088693;28;20115;-70
2023/10/23 12:33:31;;;;;;;4.45;2.50;;;14.60;99.90;;;;;;5093212;28;20118;-70
2023/10/23 12:35:57;;;;;;;6.55;2.70;;;14.60;99.90;;;;;;5075518;28;20130;-70
2023/10/23 12:38:23;;;;;;;6.25;2.88;;;14.60;99.90;;;;;;5093412;28;20043;-70
2023/10/23 12:40:49;;;;;;;4.50;2.45;;;14.50;99.90;;;;;;5094248;28;20063;-70
2023/10/23 12:43:15;;;;;;;5.85;3.65;;;14.50;99.90;;;;;;5079819;28;20358;-70
2023/10/23 12:45:42;;;;;;;7.03;3.42;;;14.50;99.90;;;;;;5093528;28;20048;-70